createdAt,value
2022-08-16T00:00:29.126Z,99.90
2022-08-16T00:03:07.586Z,99.90
2022-08-16T00:05:47.984Z,99.90
2022-08-16T00:08:36.120Z,99.90
2022-08-16T00:11:15.444Z,99.90
2022-08-16T00:13:53.010Z,99.90
2022-08-16T00:17:00.957Z,99.90
2022-08-16T00:19:22.360Z,99.90
2022-08-16T00:21:56.047Z,99.90
2022-08-16T00:24:31.381Z,99.90
2022-08-16T00:27:02.940Z,99.90
2022-08-16T00:29:33.265Z,99.90
2022-08-16T00:32:06.043Z,99.90
2022-08-16T00:34:52.520Z,99.90
2022-08-16T00:37:56.282Z,99.90
2022-08-16T00:40:34.143Z,99.90
2022-08-16T00:43:11.760Z,99.90
2022-08-16T00:45:58.190Z,99.90
2022-08-16T00:48:44.078Z,99.90
2022-08-16T00:51:16.113Z,99.90
2022-08-16T00:53:48.924Z,99.90
2022-08-16T00:56:56.862Z,99.90
2022-08-16T00:59:15.184Z,99.90
2022-08-16T01:01:46.651Z,99.90
2022-08-16T01:04:29.219Z,99.90
2022-08-16T01:07:03.155Z,99.90
2022-08-16T01:09:37.389Z,99.90
2022-08-16T01:12:10.631Z,99.90
2022-08-16T01:14:44.529Z,99.90
2022-08-16T01:17:19.827Z,99.90
2022-08-16T01:20:01.137Z,99.90
2022-08-16T01:22:50.081Z,99.90
2022-08-16T01:25:34.076Z,99.90
2022-08-16T01:28:10.120Z,99.90
2022-08-16T01:30:52.521Z,99.90
2022-08-16T01:33:23.547Z,99.90
2022-08-16T01:35:53.800Z,99.90
2022-08-16T01:38:39.177Z,99.90
2022-08-16T01:41:19.345Z,99.90
2022-08-16T01:43:54.203Z,99.90
2022-08-16T01:46:46.736Z,99.90
2022-08-16T01:49:22.376Z,99.90
2022-08-16T01:51:58.496Z,99.90
2022-08-16T01:54:31.077Z,99.90
2022-08-16T01:57:00.364Z,99.90
2022-08-16T01:59:31.039Z,99.90
2022-08-16T02:02:00.070Z,99.90
2022-08-16T02:04:40.094Z,99.90
2022-08-16T02:07:18.463Z,99.90
2022-08-16T02:09:57.044Z,99.90
2022-08-16T02:12:50.216Z,99.90
2022-08-16T02:15:17.958Z,99.90
2022-08-16T02:17:57.424Z,99.90
2022-08-16T02:20:27.874Z,99.90
2022-08-16T02:23:00.261Z,99.90
2022-08-16T02:25:51.702Z,99.90
2022-08-16T02:28:19.296Z,99.90
2022-08-16T02:30:51.624Z,99.90
2022-08-16T02:33:43.814Z,99.90
2022-08-16T02:36:49.777Z,99.90
2022-08-16T02:39:06.509Z,99.90
2022-08-16T02:41:34.347Z,99.90
2022-08-16T02:44:07.721Z,99.90
2022-08-16T02:46:34.995Z,99.90
2022-08-16T02:49:03.289Z,99.90
2022-08-16T02:51:35.960Z,99.90
2022-08-16T02:54:04.192Z,99.90
2022-08-16T02:56:32.767Z,99.90
2022-08-16T02:59:01.013Z,99.90
2022-08-16T03:01:39.845Z,99.90
2022-08-16T03:04:40.978Z,99.90
2022-08-16T03:06:57.872Z,99.90
2022-08-16T03:09:28.528Z,99.90
2022-08-16T03:11:57.335Z,99.90
2022-08-16T03:14:25.774Z,99.90
2022-08-16T03:17:00.321Z,99.90
2022-08-16T03:19:56.484Z,99.90
2022-08-16T03:22:19.143Z,99.90
2022-08-16T03:25:01.135Z,99.90
2022-08-16T03:27:32.884Z,99.90
2022-08-16T03:30:16.348Z,99.90
2022-08-16T03:32:47.887Z,99.90
2022-08-16T03:35:21.694Z,99.90
2022-08-16T03:38:02.620Z,99.90
2022-08-16T03:40:33.997Z,99.90
2022-08-16T03:43:20.103Z,99.90
2022-08-16T03:45:52.653Z,99.90
2022-08-16T03:48:36.903Z,99.90
2022-08-16T03:51:12.199Z,99.90
2022-08-16T03:53:41.536Z,99.90
2022-08-16T03:56:19.484Z,99.90
2022-08-16T03:58:50.651Z,99.90
2022-08-16T04:01:19.772Z,99.90
2022-08-16T04:03:47.060Z,99.90
2022-08-16T04:06:20.670Z,99.90
2022-08-16T04:08:48.201Z,99.90
2022-08-16T04:11:18.465Z,99.90
2022-08-16T04:14:01.277Z,99.90
2022-08-16T04:16:37.850Z,99.90
2022-08-16T04:19:05.478Z,99.90
2022-08-16T04:21:47.145Z,99.90
2022-08-16T04:24:15.017Z,99.90
2022-08-16T04:26:46.346Z,99.90
2022-08-16T04:29:23.552Z,99.90
2022-08-16T04:31:56.557Z,99.90
2022-08-16T04:34:30.788Z,99.90
2022-08-16T04:37:01.066Z,99.90
2022-08-16T04:39:45.818Z,99.90
2022-08-16T04:42:18.924Z,99.90
2022-08-16T04:44:56.059Z,99.90
2022-08-16T04:47:32.987Z,99.90
2022-08-16T04:50:07.803Z,99.90
2022-08-16T04:52:36.226Z,99.90
2022-08-16T04:55:12.035Z,99.90
2022-08-16T04:57:42.189Z,99.90
2022-08-16T05:00:25.269Z,99.90
2022-08-16T05:03:17.163Z,99.90
2022-08-16T05:05:59.518Z,99.90
2022-08-16T05:08:32.494Z,99.90
2022-08-16T05:11:05.216Z,99.90
2022-08-16T05:13:40.627Z,99.90
2022-08-16T05:16:23.219Z,99.90
2022-08-16T05:18:53.525Z,99.90
2022-08-16T05:21:24.846Z,99.90
2022-08-16T05:23:55.604Z,99.90
2022-08-16T05:26:28.275Z,99.90
2022-08-16T05:29:04.489Z,99.90
2022-08-16T05:31:32.420Z,99.90
2022-08-16T05:34:04.298Z,99.90
2022-08-16T05:36:34.209Z,99.90
2022-08-16T05:39:09.982Z,99.90
2022-08-16T05:41:45.248Z,99.90
2022-08-16T05:44:22.390Z,99.90
2022-08-16T05:46:51.702Z,99.90
2022-08-16T05:49:22.606Z,99.90
2022-08-16T05:51:50.829Z,99.90
2022-08-16T05:54:24.989Z,99.90
2022-08-16T05:56:54.327Z,99.90
2022-08-16T05:59:27.527Z,99.90
2022-08-16T06:01:55.365Z,99.90
2022-08-16T06:04:36.232Z,99.90
2022-08-16T06:07:08.198Z,99.90
2022-08-16T06:09:43.707Z,99.90
2022-08-16T06:12:26.269Z,99.90
2022-08-16T06:14:59.197Z,99.90
2022-08-16T06:17:41.699Z,99.90
2022-08-16T06:20:23.217Z,99.90
2022-08-16T06:23:03.309Z,99.90
2022-08-16T06:25:36.666Z,99.90
2022-08-16T06:28:09.790Z,99.90
2022-08-16T06:30:43.357Z,99.90
2022-08-16T06:33:19.716Z,99.90
2022-08-16T06:35:55.054Z,99.90
2022-08-16T06:38:32.459Z,99.90
2022-08-16T06:41:04.143Z,99.90
2022-08-16T06:43:36.186Z,99.90
2022-08-16T06:46:06.525Z,99.90
2022-08-16T06:48:43.122Z,99.90
2022-08-16T06:51:11.001Z,99.80
2022-08-16T06:53:38.518Z,99.40
2022-08-16T06:56:14.738Z,98.70
2022-08-16T06:58:52.285Z,98.10
2022-08-16T07:01:44.830Z,98.40
2022-08-16T07:04:12.023Z,97.20
2022-08-16T07:06:43.240Z,97.00
2022-08-16T07:09:12.484Z,96.50
2022-08-16T07:11:48.272Z,95.50
2022-08-16T07:14:24.198Z,95.10
2022-08-16T07:16:59.447Z,94.00
2022-08-16T07:19:33.747Z,93.30
2022-08-16T07:22:52.435Z,93.40
2022-08-16T07:25:10.098Z,92.70
2022-08-16T07:27:40.601Z,91.90
2022-08-16T07:30:39.101Z,91.40
2022-08-16T07:33:04.573Z,91.10
2022-08-16T07:35:44.242Z,90.70
2022-08-16T07:38:12.030Z,90.40
2022-08-16T07:41:00.638Z,87.60
2022-08-16T07:43:32.129Z,86.20
2022-08-16T07:46:01.468Z,83.90
2022-08-16T07:48:30.576Z,82.00
2022-08-16T07:51:02.482Z,84.30
2022-08-16T07:53:43.626Z,82.20
2022-08-16T07:56:11.373Z,79.60
2022-08-16T07:58:38.626Z,77.30
2022-08-16T08:01:10.477Z,75.80
2022-08-16T08:03:48.243Z,75.10
2022-08-16T08:06:24.934Z,75.60
2022-08-16T08:08:56.971Z,74.80
2022-08-16T08:11:32.644Z,75.30
2022-08-16T08:14:06.637Z,75.70
2022-08-16T08:16:35.690Z,75.00
2022-08-16T08:19:03.665Z,74.80
2022-08-16T08:21:59.894Z,73.60
2022-08-16T08:24:31.599Z,72.20
2022-08-16T08:27:04.303Z,70.60
2022-08-16T08:29:40.680Z,66.70
2022-08-16T08:32:58.863Z,66.80
2022-08-16T08:35:00.262Z,65.90
2022-08-16T08:37:54.704Z,66.20
2022-08-16T08:40:24.698Z,65.50
2022-08-16T08:43:00.836Z,63.80
2022-08-16T08:45:52.876Z,65.40
2022-08-16T08:48:33.725Z,67.70
2022-08-16T08:51:08.969Z,66.50
2022-08-16T08:53:39.816Z,69.00
2022-08-16T08:56:23.573Z,66.00
2022-08-16T08:58:58.860Z,64.30
2022-08-16T09:01:36.724Z,65.30
2022-08-16T09:04:14.865Z,61.30
2022-08-16T09:06:48.432Z,61.10
2022-08-16T09:09:16.803Z,62.80
2022-08-16T09:11:53.813Z,62.00
2022-08-16T09:14:34.505Z,61.50
2022-08-16T09:17:11.788Z,59.00
2022-08-16T09:19:55.099Z,58.50
2022-08-16T09:22:29.514Z,59.20
2022-08-16T09:25:09.878Z,59.20
2022-08-16T09:27:57.369Z,59.50
2022-08-16T09:30:33.353Z,57.20
2022-08-16T09:33:06.754Z,58.30
2022-08-16T09:35:37.313Z,58.00
2022-08-16T09:38:08.466Z,58.00
2022-08-16T09:40:42.769Z,58.10
2022-08-16T09:43:46.403Z,57.20
2022-08-16T09:46:33.364Z,58.10
2022-08-16T09:48:58.235Z,58.30
2022-08-16T09:51:36.536Z,56.90
2022-08-16T09:54:05.940Z,57.10
2022-08-16T09:56:35.363Z,57.20
2022-08-16T09:59:07.872Z,56.30
2022-08-16T10:01:38.572Z,57.40
2022-08-16T10:04:31.243Z,56.40
2022-08-16T10:09:53.707Z,56.20
2022-08-16T10:12:55.762Z,56.40
2022-08-16T10:15:26.029Z,56.00
2022-08-16T10:18:01.442Z,56.90
2022-08-16T10:20:35.362Z,55.80
2022-08-16T10:23:08.420Z,55.20
2022-08-16T10:27:20.518Z,56.00
2022-08-16T10:28:32.349Z,57.00
2022-08-16T10:31:14.506Z,58.50
2022-08-16T10:33:45.326Z,59.70
2022-08-16T10:36:37.911Z,60.10
2022-08-16T10:39:02.944Z,61.60
2022-08-16T10:41:32.838Z,62.80
2022-08-16T10:44:00.255Z,63.90
2022-08-16T10:46:39.843Z,65.20
2022-08-16T10:49:11.846Z,66.60
2022-08-16T10:52:01.388Z,67.20
2022-08-16T10:54:30.650Z,67.20
2022-08-16T10:57:00.629Z,68.40
2022-08-16T10:59:39.147Z,67.30
2022-08-16T11:02:58.304Z,67.40
2022-08-16T11:05:06.369Z,66.50
2022-08-16T11:07:43.552Z,66.40
2022-08-16T11:13:58.147Z,64.40
2022-08-16T11:17:02.116Z,65.60
2022-08-16T11:19:06.303Z,64.90
2022-08-16T11:24:42.359Z,64.40
2022-08-16T11:27:19.673Z,60.90
2022-08-16T11:29:54.898Z,61.80
2022-08-16T11:32:31.818Z,61.50
2022-08-16T11:35:13.873Z,61.80
2022-08-16T11:38:47.038Z,61.70
2022-08-16T11:40:52.246Z,61.40
2022-08-16T11:43:30.551Z,62.00
2022-08-16T11:46:27.869Z,61.50
2022-08-16T11:48:48.408Z,61.10
2022-08-16T11:51:16.188Z,62.70
2022-08-16T11:53:43.604Z,61.90
2022-08-16T11:56:14.998Z,62.00
2022-08-16T11:58:44.761Z,61.00
2022-08-16T12:01:19.845Z,60.80
2022-08-16T12:03:59.289Z,59.70
2022-08-16T12:06:30.610Z,59.70
2022-08-16T12:09:02.115Z,59.40
2022-08-16T12:11:33.453Z,59.80
2022-08-16T12:14:04.334Z,59.60
2022-08-16T12:16:34.314Z,60.20
2022-08-16T12:19:07.413Z,58.40
2022-08-16T12:21:58.665Z,59.00
2022-08-16T12:24:27.502Z,58.00
2022-08-16T12:26:55.519Z,59.00
2022-08-16T12:29:23.183Z,58.70
2022-08-16T12:32:01.151Z,58.70
2022-08-16T12:34:50.730Z,59.20
2022-08-16T12:37:21.592Z,59.50
2022-08-16T12:39:56.873Z,58.10
2022-08-16T12:42:34.788Z,59.20
2022-08-16T12:45:06.750Z,58.60
2022-08-16T12:48:04.857Z,59.20
2022-08-16T12:50:40.011Z,58.90
2022-08-16T12:53:09.944Z,59.30
2022-08-16T12:55:41.885Z,59.40
2022-08-16T12:58:48.762Z,60.50
2022-08-16T13:01:04.028Z,59.70
2022-08-16T13:03:40.219Z,59.90
2022-08-16T13:06:08.769Z,60.70
2022-08-16T13:08:36.522Z,60.30
2022-08-16T13:11:05.083Z,61.10
2022-08-16T13:13:35.659Z,62.10
2022-08-16T13:16:15.361Z,61.00
2022-08-16T13:18:54.607Z,61.00
2022-08-16T13:21:24.170Z,60.30
2022-08-16T13:23:55.367Z,61.20
2022-08-16T13:26:26.413Z,60.00
2022-08-16T13:28:58.677Z,62.90
2022-08-16T13:31:26.842Z,62.00
2022-08-16T13:33:58.873Z,61.30
2022-08-16T13:36:48.103Z,61.70
2022-08-16T13:39:14.399Z,61.60
2022-08-16T13:41:42.293Z,62.80
2022-08-16T13:44:10.163Z,62.60
2022-08-16T13:46:38.789Z,63.50
2022-08-16T13:49:06.928Z,64.80
2022-08-16T13:51:34.776Z,65.00
2022-08-16T13:54:08.261Z,64.40
2022-08-16T13:56:39.647Z,62.90
2022-08-16T13:59:16.578Z,62.10
2022-08-16T14:01:55.004Z,62.40
2022-08-16T14:04:40.265Z,63.70
2022-08-16T14:07:24.293Z,62.30
2022-08-16T14:09:55.348Z,62.60
2022-08-16T14:12:30.019Z,62.80
2022-08-16T14:15:01.035Z,63.70
2022-08-16T14:17:31.234Z,63.90
2022-08-16T14:20:22.205Z,63.10
2022-08-16T14:22:54.499Z,62.80
2022-08-16T14:25:25.232Z,62.90
2022-08-16T14:27:55.059Z,62.60
2022-08-16T14:30:26.134Z,63.00
2022-08-16T14:32:54.135Z,63.50
2022-08-16T14:35:29.372Z,64.00
2022-08-16T14:38:05.132Z,64.70
2022-08-16T14:40:33.100Z,64.40
2022-08-16T14:43:06.915Z,64.20
2022-08-16T14:45:35.415Z,65.90
2022-08-16T14:48:03.087Z,65.30
2022-08-16T14:50:34.596Z,65.70
2022-08-16T14:53:06.040Z,65.90
2022-08-16T14:55:36.491Z,66.10
2022-08-16T14:58:05.385Z,65.50
2022-08-16T15:00:36.476Z,66.70
2022-08-16T15:03:10.576Z,65.50
2022-08-16T15:05:41.784Z,65.00
2022-08-16T15:08:10.890Z,65.00
2022-08-16T15:10:44.786Z,64.70
2022-08-16T15:13:19.009Z,64.80
2022-08-16T15:15:51.474Z,64.60
2022-08-16T15:18:28.026Z,65.00
2022-08-16T15:21:02.629Z,64.30
2022-08-16T15:23:33.744Z,65.10
2022-08-16T15:26:03.994Z,64.20
2022-08-16T15:28:37.175Z,64.50
2022-08-16T15:31:09.208Z,65.40
2022-08-16T15:33:45.417Z,64.90
2022-08-16T15:36:20.414Z,65.00
2022-08-16T15:39:02.763Z,65.00
2022-08-16T15:41:47.820Z,65.50
2022-08-16T15:44:22.994Z,64.50
2022-08-16T15:46:58.638Z,63.20
2022-08-16T15:49:38.095Z,64.60
2022-08-16T15:52:16.539Z,66.40
2022-08-16T15:54:53.332Z,66.80
2022-08-16T15:57:25.398Z,65.60
2022-08-16T15:59:57.781Z,66.50
2022-08-16T16:02:32.104Z,66.70
2022-08-16T16:05:06.696Z,67.00
2022-08-16T16:07:35.995Z,66.00
2022-08-16T16:10:07.996Z,66.70
2022-08-16T16:12:51.114Z,65.60
2022-08-16T16:15:29.460Z,66.90
2022-08-16T16:18:09.588Z,66.40
2022-08-16T16:20:43.883Z,65.60
2022-08-16T16:23:13.810Z,65.80
2022-08-16T16:25:44.716Z,65.20
2022-08-16T16:29:06.428Z,65.80
2022-08-16T16:31:09.684Z,66.20
2022-08-16T16:33:41.982Z,67.20
2022-08-16T16:36:16.247Z,66.70
2022-08-16T16:38:49.050Z,66.50
2022-08-16T16:41:22.722Z,66.40
2022-08-16T16:43:54.730Z,66.40
2022-08-16T16:46:42.020Z,66.40
2022-08-16T16:49:16.851Z,65.90
2022-08-16T16:51:44.623Z,68.60
2022-08-16T16:54:27.679Z,66.70
2022-08-16T16:56:58.130Z,69.00
2022-08-16T16:59:27.931Z,68.60
2022-08-16T17:02:41.487Z,68.40
2022-08-16T17:04:48.231Z,68.20
2022-08-16T17:07:16.366Z,68.90
2022-08-16T17:09:46.824Z,70.30
2022-08-16T17:12:24.974Z,70.20
2022-08-16T17:14:56.445Z,69.40
2022-08-16T17:17:26.770Z,70.50
2022-08-16T17:19:59.451Z,70.70
2022-08-16T17:22:33.002Z,71.50
2022-08-16T17:25:01.447Z,71.30
2022-08-16T17:27:50.679Z,71.90
2022-08-16T17:30:22.112Z,71.70
2022-08-16T17:33:01.161Z,71.40
2022-08-16T17:35:55.892Z,72.30
2022-08-16T17:38:32.876Z,71.60
2022-08-16T17:41:07.939Z,73.30
2022-08-16T17:43:44.302Z,74.30
2022-08-16T17:46:51.557Z,74.10
2022-08-16T17:49:03.176Z,73.50
2022-08-16T17:51:31.027Z,74.10
2022-08-16T17:54:03.248Z,74.20
2022-08-16T17:56:31.103Z,74.20
2022-08-16T17:59:01.926Z,73.70
2022-08-16T18:01:29.790Z,72.50
2022-08-16T18:04:09.164Z,73.30
2022-08-16T18:06:38.633Z,72.00
2022-08-16T18:09:10.354Z,70.00
2022-08-16T18:11:42.956Z,70.60
2022-08-16T18:14:12.730Z,70.00
2022-08-16T18:16:41.264Z,70.80
2022-08-16T18:19:10.468Z,70.10
2022-08-16T18:21:56.789Z,70.70
2022-08-16T18:24:26.421Z,71.90
2022-08-16T18:26:54.290Z,71.10
2022-08-16T18:29:24.528Z,69.80
2022-08-16T18:31:51.833Z,70.30
2022-08-16T18:34:22.259Z,70.50
2022-08-16T18:36:52.072Z,70.90
2022-08-16T18:39:21.541Z,71.10
2022-08-16T18:41:56.397Z,71.10
2022-08-16T18:44:29.228Z,71.30
2022-08-16T18:47:02.370Z,71.50
2022-08-16T18:49:29.638Z,71.80
2022-08-16T18:51:59.157Z,72.40
2022-08-16T18:54:28.237Z,74.30
2022-08-16T18:56:57.908Z,73.40
2022-08-16T18:59:33.147Z,73.60
2022-08-16T19:02:05.648Z,74.10
2022-08-16T19:04:47.573Z,74.00
2022-08-16T19:07:31.485Z,74.40
2022-08-16T19:10:05.916Z,74.70
2022-08-16T19:12:37.930Z,75.40
2022-08-16T19:15:16.249Z,75.80
2022-08-16T19:17:44.918Z,77.20
2022-08-16T19:20:14.519Z,76.80
2022-08-16T19:25:46.631Z,77.30
2022-08-16T19:28:50.709Z,77.50
2022-08-16T19:31:27.590Z,77.20
2022-08-16T19:33:56.716Z,77.70
2022-08-16T19:36:36.122Z,78.00
2022-08-16T19:39:15.974Z,77.50
2022-08-16T19:42:39.921Z,77.30
2022-08-16T19:44:43.159Z,77.40
2022-08-16T19:47:11.743Z,78.00
2022-08-16T19:49:42.213Z,78.30
2022-08-16T19:52:29.526Z,78.70
2022-08-16T19:55:04.793Z,79.00
2022-08-16T19:57:45.396Z,78.90
2022-08-16T20:00:15.727Z,79.00
2022-08-16T20:02:51.122Z,79.10
2022-08-16T20:05:24.145Z,79.60
2022-08-16T20:07:51.627Z,79.80
2022-08-16T20:10:24.875Z,79.80
2022-08-16T20:13:02.119Z,79.70
2022-08-16T20:15:31.521Z,80.00
2022-08-16T20:17:58.961Z,80.20
2022-08-16T20:20:28.434Z,80.80
2022-08-16T20:22:57.526Z,80.60
2022-08-16T20:25:31.670Z,80.90
2022-08-16T20:28:00.931Z,81.30
2022-08-16T20:30:28.540Z,82.70
2022-08-16T20:32:56.120Z,83.30
2022-08-16T20:35:27.411Z,83.50
2022-08-16T20:37:55.946Z,84.00
2022-08-16T20:40:34.757Z,83.30
2022-08-16T20:43:16.490Z,83.50
2022-08-16T20:45:50.118Z,83.90
2022-08-16T20:48:19.902Z,83.60
2022-08-16T20:50:47.253Z,83.80
2022-08-16T20:53:16.967Z,84.20
2022-08-16T20:55:46.772Z,84.60
2022-08-16T20:58:19.505Z,85.20
2022-08-16T21:00:49.771Z,85.60
2022-08-16T21:03:19.667Z,85.90
2022-08-16T21:05:46.944Z,85.90
2022-08-16T21:08:51.618Z,86.30
2022-08-16T21:11:04.446Z,86.70
2022-08-16T21:13:32.691Z,86.70
2022-08-16T21:16:02.488Z,87.20
2022-08-16T21:18:30.017Z,87.20
2022-08-16T21:20:57.288Z,87.80
2022-08-16T21:23:25.483Z,88.20
2022-08-16T21:25:59.020Z,88.50
2022-08-16T21:28:39.995Z,88.30
2022-08-16T21:31:15.471Z,88.60
2022-08-16T21:33:44.436Z,88.90
2022-08-16T21:36:14.726Z,89.60
2022-08-16T21:38:44.427Z,89.90
2022-08-16T21:41:12.868Z,90.00
2022-08-16T21:43:45.692Z,90.30
2022-08-16T21:46:13.369Z,90.40
2022-08-16T21:48:40.928Z,90.50
2022-08-16T21:51:12.202Z,90.60
2022-08-16T21:53:41.538Z,91.00
2022-08-16T21:56:12.570Z,91.10
2022-08-16T21:58:52.750Z,91.20
2022-08-16T22:01:25.343Z,91.80
2022-08-16T22:04:35.661Z,91.80
2022-08-16T22:06:44.146Z,92.00
2022-08-16T22:09:15.253Z,92.40
2022-08-16T22:11:44.127Z,92.40
2022-08-16T22:14:11.556Z,92.20
2022-08-16T22:16:41.721Z,92.10
2022-08-16T22:19:09.873Z,92.30
2022-08-16T22:21:37.706Z,92.50
2022-08-16T22:24:05.162Z,92.50
2022-08-16T22:26:39.618Z,92.60
2022-08-16T22:29:12.835Z,92.70
2022-08-16T22:31:40.868Z,92.80
2022-08-16T22:34:09.007Z,93.10
2022-08-16T22:36:37.244Z,93.20
2022-08-16T22:39:08.017Z,93.60
2022-08-16T22:41:38.962Z,93.50
2022-08-16T22:44:09.267Z,93.80
2022-08-16T22:46:39.058Z,94.00
2022-08-16T22:49:07.367Z,94.10
2022-08-16T22:51:38.174Z,94.00
2022-08-16T22:54:42.518Z,94.20
2022-08-16T22:56:57.629Z,94.30
2022-08-16T22:59:25.246Z,94.30
2022-08-16T23:01:54.770Z,94.40
2022-08-16T23:04:25.164Z,94.60
2022-08-16T23:06:52.657Z,94.70
2022-08-16T23:09:20.303Z,95.00
2022-08-16T23:11:47.705Z,95.30
2022-08-16T23:14:18.049Z,95.70
2022-08-16T23:16:47.183Z,95.90
2022-08-16T23:19:16.134Z,96.20
2022-08-16T23:21:46.920Z,96.00
2022-08-16T23:24:19.338Z,96.10
2022-08-16T23:26:49.805Z,96.20
2022-08-16T23:29:24.668Z,96.40
2022-08-16T23:32:03.007Z,96.40
2022-08-16T23:34:32.602Z,96.50
2022-08-16T23:37:02.350Z,96.30
2022-08-16T23:39:31.993Z,96.10
2022-08-16T23:42:01.968Z,96.10
2022-08-16T23:44:57.719Z,96.30
2022-08-16T23:47:16.386Z,96.30
2022-08-16T23:50:00.199Z,96.50
2022-08-16T23:52:53.084Z,96.70
2022-08-16T23:55:17.758Z,96.70
2022-08-16T23:57:46.180Z,96.90
